VEGT/GAU METAR and TAF weather

Enter ICAO airport designator
Station Type Date Time Source
VEGT METAR 2018/12/19 03:00 UTC NOAA

VEGT 190300Z 00000KT 2000 BR FEW010 SCT016 OVC090 17/17 Q1019 NOSIG


Station Type Date Time Source
VEGT Decoded METAR 2018/12/19 03:00 UTC NOAA

Gauhati, India (VEGT) 26-06N 091-35E 54M
Dec 18, 2018 - 10:00 PM EST / 2018.12.19 0300 UTC
Wind: Calm:0
Visibility: 1 mile(s):0
Sky conditions: overcast
Weather: mist
Temperature: 62 F (17 C)
Dew Point: 62 F (17 C)
Relative Humidity: 100%
Pressure (altimeter): 30.09 in. Hg (1019 hPa)
ob: VEGT 190300Z 00000KT 2000 BR FEW010 SCT016 OVC090 17/17 Q1019 NOSIG
cycle: 3

Station Type Date Time Source
VEGT TAF 2016/03/24 00:45 UTC NOAA

TAF VEGT 242300Z 2500/2606 00000KT 2000 BR FEW020
BECMG 2503/2506 05008KT 4000 HZ
BECMG 2506/2509 5000 HZ
BECMG 2512/2514 00000KT 4000 HZ FEW020 SCT100
BECMG 2515/2518 2500 HZ
BECMG 2603/2606 05008KT 4000 HZ FEW020=


Example: see airport list